createdAt,value
2023-03-02T00:01:03.390Z,-1.77
2023-03-02T00:03:32.157Z,-1.74
2023-03-02T00:05:59.725Z,-1.68
2023-03-02T00:08:27.922Z,-1.68
2023-03-02T00:10:56.535Z,-1.59
2023-03-02T00:13:23.605Z,-1.67
2023-03-02T00:15:50.227Z,-1.63
2023-03-02T00:18:16.729Z,-1.50
2023-03-02T00:20:43.186Z,-1.57
2023-03-02T00:23:09.832Z,-1.64
2023-03-02T00:25:36.469Z,-1.66
2023-03-02T00:28:03.564Z,-1.71
2023-03-02T00:30:30.095Z,-1.73
2023-03-02T00:32:58.561Z,-1.80
2023-03-02T00:35:28.410Z,-1.83
2023-03-02T00:37:55.064Z,-1.91
2023-03-02T00:40:21.536Z,-1.96
2023-03-02T00:42:47.989Z,-1.97
2023-03-02T00:45:14.421Z,-1.94
2023-03-02T00:47:41.661Z,-2.00
2023-03-02T00:50:09.814Z,-1.94
2023-03-02T00:52:36.477Z,-1.92
2023-03-02T00:55:03.319Z,-1.96
2023-03-02T00:57:29.964Z,-1.86
2023-03-02T00:59:56.411Z,-1.97
2023-03-02T01:02:31.839Z,-2.03
2023-03-02T01:04:58.728Z,-2.01
2023-03-02T01:07:28.163Z,-1.89
2023-03-02T01:09:54.654Z,-1.90
2023-03-02T01:12:21.103Z,-2.00
2023-03-02T01:14:48.897Z,-2.06
2023-03-02T01:17:15.671Z,-1.99
2023-03-02T01:19:42.276Z,-1.99
2023-03-02T01:22:09.998Z,-2.07
2023-03-02T01:24:36.444Z,-2.06
2023-03-02T01:27:02.969Z,-2.08
2023-03-02T01:29:29.438Z,-2.08
2023-03-02T01:31:55.984Z,-2.00
2023-03-02T01:34:22.625Z,-2.01
2023-03-02T01:36:49.159Z,-2.12
2023-03-02T01:39:16.154Z,-2.15
2023-03-02T01:41:44.486Z,-2.15
2023-03-02T01:44:41.079Z,-2.12
2023-03-02T01:47:32.210Z,-2.24
2023-03-02T01:50:24.358Z,-2.27
2023-03-02T01:52:55.514Z,-2.32
2023-03-02T01:55:25.653Z,-2.37
2023-03-02T01:57:55.498Z,-2.41
2023-03-02T02:00:34.254Z,-2.49
2023-03-02T02:03:09.058Z,-2.54
2023-03-02T02:05:43.031Z,-2.51
2023-03-02T02:08:10.266Z,-2.58
2023-03-02T02:10:39.802Z,-2.61
2023-03-02T02:13:10.855Z,-2.58
2023-03-02T02:15:38.898Z,-2.67
2023-03-02T02:18:05.547Z,-2.69
2023-03-02T02:20:41.285Z,-2.62
2023-03-02T02:23:26.443Z,-2.75
2023-03-02T02:25:55.564Z,-2.76
2023-03-02T02:28:30.798Z,-2.75
2023-03-02T02:31:26.777Z,-2.72
2023-03-02T02:33:59.701Z,-2.66
2023-03-02T02:36:34.934Z,-2.58
2023-03-02T02:39:08.559Z,-2.56
2023-03-02T02:41:38.200Z,-2.56
2023-03-02T02:44:05.988Z,-2.59
2023-03-02T02:46:34.126Z,-2.62
2023-03-02T02:49:03.807Z,-2.61
2023-03-02T02:51:30.367Z,-2.40
2023-03-02T02:53:59.953Z,-2.37
2023-03-02T02:56:35.985Z,-2.43
2023-03-02T02:59:17.515Z,-2.58
2023-03-02T03:01:45.892Z,-2.69
2023-03-02T03:04:18.137Z,-2.70
2023-03-02T03:06:57.098Z,-2.76
2023-03-02T03:09:24.846Z,-2.74
2023-03-02T03:12:02.591Z,-2.72
2023-03-02T03:14:33.783Z,-2.76
2023-03-02T03:17:00.572Z,-2.81
2023-03-02T03:19:31.572Z,-2.82
2023-03-02T03:22:01.257Z,-2.75
2023-03-02T03:24:34.926Z,-2.69
2023-03-02T03:27:05.308Z,-2.72
2023-03-02T03:29:34.608Z,-2.71
2023-03-02T03:32:03.384Z,-2.70
2023-03-02T03:34:31.494Z,-2.69
2023-03-02T03:37:01.785Z,-2.67
2023-03-02T03:39:31.709Z,-2.61
2023-03-02T03:41:58.896Z,-2.53
2023-03-02T03:44:25.392Z,-2.47
2023-03-02T03:46:52.520Z,-2.42
2023-03-02T03:49:19.173Z,-2.37
2023-03-02T03:51:45.784Z,-2.24
2023-03-02T03:54:12.464Z,-2.26
2023-03-02T03:56:45.844Z,-2.21
2023-03-02T03:59:18.152Z,-2.28
2023-03-02T04:01:53.222Z,-2.25
2023-03-02T04:04:35.598Z,-2.22
2023-03-02T04:07:07.329Z,-2.31
2023-03-02T04:09:37.845Z,-2.33
2023-03-02T04:12:06.711Z,-2.29
2023-03-02T04:14:33.322Z,-2.22
2023-03-02T04:17:00.852Z,-2.14
2023-03-02T04:19:27.855Z,-2.22
2023-03-02T04:21:58.826Z,-2.20
2023-03-02T04:24:26.300Z,-2.22
2023-03-02T04:26:55.656Z,-2.15
2023-03-02T04:29:23.234Z,-2.23
2023-03-02T04:31:50.839Z,-2.15
2023-03-02T04:34:18.762Z,-2.05
2023-03-02T04:36:46.848Z,-2.18
2023-03-02T04:39:16.704Z,-2.11
2023-03-02T04:41:47.913Z,-2.25
2023-03-02T04:44:15.914Z,-2.17
2023-03-02T04:46:44.953Z,-2.21
2023-03-02T04:49:12.668Z,-2.16
2023-03-02T04:51:42.911Z,-2.14
2023-03-02T04:54:19.511Z,-2.21
2023-03-02T04:56:48.517Z,-2.23
2023-03-02T04:59:20.942Z,-2.20
2023-03-02T05:01:48.111Z,-2.23
2023-03-02T05:04:15.186Z,-2.15
2023-03-02T05:06:41.782Z,-2.27
2023-03-02T05:09:08.313Z,-2.19
2023-03-02T05:11:35.689Z,-2.16
2023-03-02T05:14:05.168Z,-2.15
2023-03-02T05:16:34.536Z,-2.14
2023-03-02T05:19:02.972Z,-2.09
2023-03-02T05:21:30.396Z,-1.98
2023-03-02T05:23:57.982Z,-2.07
2023-03-02T05:26:24.448Z,-2.03
2023-03-02T05:28:53.032Z,-2.00
2023-03-02T05:31:29.148Z,-2.05
2023-03-02T05:33:55.720Z,-2.05
2023-03-02T05:36:23.338Z,-2.00
2023-03-02T05:38:49.953Z,-1.92
2023-03-02T05:41:16.442Z,-1.87
2023-03-02T05:43:43.352Z,-2.05
2023-03-02T05:46:09.837Z,-2.11
2023-03-02T05:48:36.869Z,-2.18
2023-03-02T05:51:03.666Z,-2.13
2023-03-02T05:53:30.102Z,-2.18
2023-03-02T05:55:56.827Z,-2.10
2023-03-02T05:58:23.243Z,-2.05
2023-03-02T06:00:49.967Z,-2.11
2023-03-02T06:03:16.932Z,-2.09
2023-03-02T06:05:43.915Z,-2.09
2023-03-02T06:08:10.534Z,-2.08
2023-03-02T06:10:36.992Z,-2.12
2023-03-02T06:13:03.459Z,-2.20
2023-03-02T06:15:29.910Z,-2.08
2023-03-02T06:17:57.678Z,-2.06
2023-03-02T06:20:24.730Z,-2.09
2023-03-02T06:22:51.151Z,-2.14
2023-03-02T06:25:23.136Z,-2.09
2023-03-02T06:27:51.647Z,-2.12
2023-03-02T06:30:22.295Z,-2.15
2023-03-02T06:32:48.814Z,-2.11
2023-03-02T06:35:15.954Z,-2.03
2023-03-02T06:37:44.241Z,-1.95
2023-03-02T06:40:12.100Z,-2.00
2023-03-02T06:42:39.420Z,-1.99
2023-03-02T06:45:07.692Z,-1.98
2023-03-02T06:47:34.114Z,-1.95
2023-03-02T06:50:00.912Z,-1.93
2023-03-02T06:52:28.010Z,-1.98
2023-03-02T06:54:55.904Z,-1.92
2023-03-02T06:57:22.740Z,-1.99
2023-03-02T06:59:49.140Z,-2.05
2023-03-02T07:02:15.582Z,-1.88
2023-03-02T07:04:42.132Z,-1.83
2023-03-02T07:07:08.989Z,-1.87
2023-03-02T07:09:35.496Z,-1.90
2023-03-02T07:12:02.053Z,-1.83
2023-03-02T07:14:28.446Z,-1.86
2023-03-02T07:16:57.373Z,-1.92
2023-03-02T07:19:24.228Z,-1.88
2023-03-02T07:21:50.648Z,-1.86
2023-03-02T07:24:17.106Z,-1.77
2023-03-02T07:26:43.697Z,-1.75
2023-03-02T07:29:10.228Z,-1.86
2023-03-02T07:31:36.657Z,-1.77
2023-03-02T07:34:03.113Z,-1.74
2023-03-02T07:36:30.114Z,-1.77
2023-03-02T07:38:56.531Z,-1.68
2023-03-02T07:41:22.925Z,-1.71
2023-03-02T07:43:49.386Z,-1.71
2023-03-02T07:46:16.137Z,-1.71
2023-03-02T07:48:42.848Z,-1.78
2023-03-02T07:51:09.290Z,-1.67
2023-03-02T07:53:36.138Z,-1.58
2023-03-02T07:56:07.241Z,-1.74
2023-03-02T07:58:35.272Z,-1.70
2023-03-02T08:01:02.230Z,-1.59
2023-03-02T08:03:28.802Z,-1.41
2023-03-02T08:05:55.217Z,-1.44
2023-03-02T08:08:21.690Z,-1.44
2023-03-02T08:10:48.202Z,-1.53
2023-03-02T08:13:14.617Z,-1.57
2023-03-02T08:15:41.670Z,-1.62
2023-03-02T08:18:08.096Z,-1.58
2023-03-02T08:20:34.482Z,-1.46
2023-03-02T08:23:01.060Z,-1.39
2023-03-02T08:25:27.535Z,-1.29
2023-03-02T08:27:54.019Z,-1.32
2023-03-02T08:30:20.404Z,-1.31
2023-03-02T08:32:47.025Z,-1.31
2023-03-02T08:35:13.820Z,-1.25
2023-03-02T08:37:40.329Z,-1.24
2023-03-02T08:40:07.468Z,-1.13
2023-03-02T08:42:33.895Z,-1.24
2023-03-02T08:45:00.394Z,-1.21
2023-03-02T08:47:28.500Z,-1.14
2023-03-02T08:49:54.928Z,-1.04
2023-03-02T08:52:21.362Z,-1.12
2023-03-02T08:54:48.071Z,-1.10
2023-03-02T08:57:14.525Z,-1.11
2023-03-02T08:59:41.431Z,-1.23
2023-03-02T09:02:12.265Z,-1.21
2023-03-02T09:04:39.343Z,-1.18
2023-03-02T09:07:05.957Z,-1.09
2023-03-02T09:09:32.378Z,-1.19
2023-03-02T09:11:58.912Z,-1.21
2023-03-02T09:14:25.580Z,-1.27
2023-03-02T09:16:52.772Z,-1.24
2023-03-02T09:19:19.835Z,-1.17
2023-03-02T09:21:46.287Z,-1.18
2023-03-02T09:24:12.779Z,-1.15
2023-03-02T09:26:39.277Z,-1.05
2023-03-02T09:29:07.073Z,-1.05
2023-03-02T09:31:34.960Z,-1.10
2023-03-02T09:34:03.280Z,-1.02
2023-03-02T09:36:32.535Z,-1.05
2023-03-02T09:38:59.806Z,-0.95
2023-03-02T09:41:51.150Z,-0.93
2023-03-02T09:44:55.206Z,-1.15
2023-03-02T09:47:35.502Z,-0.92
2023-03-02T09:50:32.585Z,-0.88
2023-03-02T09:53:33.239Z,-0.86
2023-03-02T09:56:02.056Z,-0.77
2023-03-02T09:58:37.630Z,-0.58
2023-03-02T10:01:15.456Z,-0.56
2023-03-02T10:03:57.332Z,-0.48
2023-03-02T10:06:24.116Z,-0.38
2023-03-02T10:08:50.974Z,-0.28
2023-03-02T10:11:39.439Z,-0.21
2023-03-02T10:14:14.992Z,-0.37
2023-03-02T10:16:46.946Z,-0.28
2023-03-02T10:19:20.900Z,-0.15
2023-03-02T10:21:58.132Z,-0.25
2023-03-02T10:24:38.107Z,-0.13
2023-03-02T10:27:18.275Z,-0.05
2023-03-02T10:29:55.761Z,0.02
2023-03-02T10:32:32.017Z,0.05
2023-03-02T10:35:01.431Z,0.16
2023-03-02T10:37:30.788Z,0.34
2023-03-02T10:39:57.309Z,0.32
2023-03-02T10:42:32.160Z,0.17
2023-03-02T10:45:27.119Z,0.42
2023-03-02T10:48:09.743Z,0.54
2023-03-02T10:50:37.219Z,0.60
2023-03-02T10:53:07.477Z,0.69
2023-03-02T10:55:34.881Z,0.80
2023-03-02T10:58:05.862Z,0.82
2023-03-02T11:00:34.388Z,0.65
2023-03-02T11:06:19.684Z,0.43
2023-03-02T11:08:46.242Z,0.60
2023-03-02T11:11:22.278Z,0.61
2023-03-02T11:13:48.935Z,0.47
2023-03-02T11:16:18.392Z,0.57
2023-03-02T11:18:57.670Z,0.62
2023-03-02T11:21:33.044Z,0.63
2023-03-02T11:24:12.730Z,0.65
2023-03-02T11:26:46.092Z,0.57
2023-03-02T11:29:34.003Z,0.65
2023-03-02T11:32:31.024Z,0.70
2023-03-02T11:35:03.347Z,0.93
2023-03-02T11:37:37.687Z,1.05
2023-03-02T11:40:30.213Z,0.85
2023-03-02T11:42:59.257Z,1.04
2023-03-02T11:45:44.778Z,1.03
2023-03-02T11:48:25.293Z,1.15
2023-03-02T11:51:05.299Z,1.11
2023-03-02T11:53:57.872Z,1.04
2023-03-02T11:56:26.432Z,1.02
2023-03-02T11:59:00.135Z,1.01
2023-03-02T12:01:28.668Z,1.24
2023-03-02T12:04:07.202Z,1.14
2023-03-02T12:06:40.772Z,1.25
2023-03-02T12:09:30.760Z,1.44
2023-03-02T12:12:17.146Z,1.42
2023-03-02T12:14:43.738Z,1.32
2023-03-02T12:17:25.147Z,1.50
2023-03-02T12:20:08.403Z,1.61
2023-03-02T12:22:36.022Z,1.50
2023-03-02T12:25:20.154Z,1.67
2023-03-02T12:27:49.836Z,1.80
2023-03-02T12:30:16.655Z,1.76
2023-03-02T12:33:18.412Z,1.75
2023-03-02T12:35:46.256Z,1.70
2023-03-02T12:38:32.516Z,1.72
2023-03-02T12:41:13.706Z,1.77
2023-03-02T12:44:12.951Z,1.65
2023-03-02T12:46:45.810Z,1.79
2023-03-02T12:49:20.907Z,1.88
2023-03-02T12:51:51.964Z,1.94
2023-03-02T12:54:24.200Z,1.90
2023-03-02T12:57:06.743Z,1.79
2023-03-02T12:59:33.166Z,1.84
2023-03-02T13:02:21.257Z,2.08
2023-03-02T13:04:59.666Z,2.04
2023-03-02T13:07:41.107Z,2.01
2023-03-02T13:10:22.535Z,1.85
2023-03-02T13:12:49.060Z,1.92
2023-03-02T13:15:17.230Z,1.98
2023-03-02T13:17:44.718Z,2.10
2023-03-02T13:20:14.479Z,2.29
2023-03-02T13:22:41.677Z,2.22
2023-03-02T13:25:22.204Z,2.11
2023-03-02T13:27:54.379Z,2.22
2023-03-02T13:30:30.973Z,2.15
2023-03-02T13:33:06.209Z,2.30
2023-03-02T13:35:35.984Z,2.25
2023-03-02T13:38:14.140Z,2.29
2023-03-02T13:40:44.730Z,2.20
2023-03-02T13:43:36.030Z,2.20
2023-03-02T13:46:24.493Z,2.17
2023-03-02T13:49:14.280Z,2.09
2023-03-02T13:51:45.159Z,2.06
2023-03-02T13:54:25.581Z,2.09
2023-03-02T13:56:53.606Z,2.16
2023-03-02T13:59:21.567Z,2.05
2023-03-02T14:01:48.543Z,1.94
2023-03-02T14:04:17.725Z,2.07
2023-03-02T14:06:45.866Z,1.95
2023-03-02T14:09:13.036Z,2.00
2023-03-02T14:11:43.951Z,2.15
2023-03-02T14:14:20.763Z,2.12
2023-03-02T14:16:47.280Z,2.07
2023-03-02T14:19:16.222Z,2.12
2023-03-02T14:21:43.353Z,1.94
2023-03-02T14:24:10.611Z,1.94
2023-03-02T14:26:40.814Z,1.93
2023-03-02T14:29:25.209Z,1.89
2023-03-02T14:31:51.722Z,1.75
2023-03-02T14:34:18.544Z,1.73
2023-03-02T14:36:48.398Z,1.71
2023-03-02T14:39:36.599Z,1.64
2023-03-02T14:42:10.759Z,1.66
2023-03-02T14:44:37.312Z,1.62
2023-03-02T14:47:03.745Z,1.59
2023-03-02T14:49:30.207Z,1.42
2023-03-02T14:52:05.490Z,1.40
2023-03-02T14:54:39.700Z,1.45
2023-03-02T14:57:17.013Z,1.53
2023-03-02T14:59:43.965Z,1.45
2023-03-02T15:02:24.365Z,1.43
2023-03-02T15:04:56.084Z,1.42
2023-03-02T15:07:24.073Z,1.51
2023-03-02T15:09:50.491Z,1.67
2023-03-02T15:12:17.015Z,1.59
2023-03-02T15:14:44.055Z,1.56
2023-03-02T15:17:10.810Z,1.42
2023-03-02T15:19:37.281Z,1.45
2023-03-02T15:22:04.827Z,1.42
2023-03-02T15:24:33.243Z,1.34
2023-03-02T15:27:00.291Z,1.38
2023-03-02T15:29:26.739Z,1.46
2023-03-02T15:31:53.240Z,1.42
2023-03-02T15:34:19.829Z,1.37
2023-03-02T15:36:46.284Z,1.36
2023-03-02T15:39:14.320Z,1.34
2023-03-02T15:41:42.266Z,1.47
2023-03-02T15:44:21.427Z,1.44
2023-03-02T15:46:55.151Z,1.35
2023-03-02T15:49:24.387Z,1.34
2023-03-02T15:51:52.010Z,1.39
2023-03-02T15:54:19.177Z,1.37
2023-03-02T15:56:49.443Z,1.35
2023-03-02T15:59:16.006Z,1.24
2023-03-02T16:01:42.460Z,1.22
2023-03-02T16:04:09.229Z,1.28
2023-03-02T16:06:35.929Z,1.27
2023-03-02T16:09:03.286Z,1.25
2023-03-02T16:11:30.122Z,1.10
2023-03-02T16:13:56.593Z,1.09
2023-03-02T16:16:23.520Z,1.07
2023-03-02T16:18:55.322Z,1.01
2023-03-02T16:21:22.860Z,1.03
2023-03-02T16:23:49.485Z,1.08
2023-03-02T16:26:19.485Z,1.05
2023-03-02T16:28:46.352Z,1.15
2023-03-02T16:31:20.407Z,1.10
2023-03-02T16:33:49.820Z,0.98
2023-03-02T16:36:17.246Z,0.89
2023-03-02T16:38:44.383Z,0.95
2023-03-02T16:41:15.229Z,0.95
2023-03-02T16:43:46.499Z,0.89
2023-03-02T16:46:13.254Z,0.82
2023-03-02T16:48:39.645Z,0.84
2023-03-02T16:51:06.733Z,0.73
2023-03-02T16:53:33.410Z,0.78
2023-03-02T16:56:00.316Z,0.87
2023-03-02T16:58:27.357Z,0.84
2023-03-02T17:00:54.994Z,0.76
2023-03-02T17:03:21.961Z,0.67
2023-03-02T17:05:48.490Z,0.80
2023-03-02T17:08:16.081Z,0.81
2023-03-02T17:10:43.707Z,0.74
2023-03-02T17:13:13.072Z,0.81
2023-03-02T17:15:39.741Z,0.87
2023-03-02T17:18:06.350Z,0.86
2023-03-02T17:20:32.776Z,0.78
2023-03-02T17:22:59.265Z,0.72
2023-03-02T17:25:25.819Z,0.82
2023-03-02T17:27:52.278Z,0.99
2023-03-02T17:30:18.918Z,0.88
2023-03-02T17:32:45.390Z,0.92
2023-03-02T17:35:13.888Z,0.89
2023-03-02T17:37:40.494Z,0.87
2023-03-02T17:40:08.076Z,0.82
2023-03-02T17:42:34.529Z,1.03
2023-03-02T17:45:01.308Z,0.92
2023-03-02T17:47:27.851Z,0.85
2023-03-02T17:49:56.135Z,0.89
2023-03-02T17:52:22.629Z,0.90
2023-03-02T17:54:49.434Z,0.87
2023-03-02T17:57:21.757Z,0.88
2023-03-02T17:59:51.814Z,0.92
2023-03-02T18:02:19.270Z,0.96
2023-03-02T18:04:46.365Z,0.95
2023-03-02T18:07:13.353Z,0.99
2023-03-02T18:09:39.819Z,1.00
2023-03-02T18:12:07.479Z,1.04
2023-03-02T18:14:35.461Z,1.14
2023-03-02T18:17:04.831Z,1.11
2023-03-02T18:19:31.544Z,1.14
2023-03-02T18:21:58.083Z,1.25
2023-03-02T18:24:25.747Z,1.21
2023-03-02T18:26:52.177Z,1.20
2023-03-02T18:29:18.949Z,1.09
2023-03-02T18:31:45.495Z,1.14
2023-03-02T18:34:12.035Z,1.09
2023-03-02T18:36:38.497Z,1.14
2023-03-02T18:39:04.906Z,1.09
2023-03-02T18:41:32.341Z,1.03
2023-03-02T18:44:02.605Z,1.07
2023-03-02T18:46:31.196Z,1.06
2023-03-02T18:49:00.354Z,1.06
2023-03-02T18:51:28.343Z,1.04
2023-03-02T18:53:55.317Z,1.01
2023-03-02T18:56:22.196Z,0.98
2023-03-02T18:58:49.505Z,1.01
2023-03-02T19:01:16.182Z,1.08
2023-03-02T19:03:46.034Z,1.12
2023-03-02T19:06:13.499Z,1.08
2023-03-02T19:08:40.081Z,1.01
2023-03-02T19:11:06.931Z,1.18
2023-03-02T19:13:33.645Z,1.08
2023-03-02T19:16:01.976Z,0.99
2023-03-02T19:18:30.881Z,0.98
2023-03-02T19:20:57.724Z,0.96
2023-03-02T19:23:24.907Z,1.03
2023-03-02T19:25:51.644Z,1.09
2023-03-02T19:28:18.043Z,1.05
2023-03-02T19:30:44.858Z,1.06
2023-03-02T19:33:11.548Z,1.06
2023-03-02T19:35:38.509Z,1.10
2023-03-02T19:38:06.417Z,1.04
2023-03-02T19:40:34.423Z,1.05
2023-03-02T19:43:01.922Z,1.06
2023-03-02T19:45:32.262Z,1.05
2023-03-02T19:48:01.147Z,1.01
2023-03-02T19:50:28.826Z,1.05
2023-03-02T19:52:56.194Z,0.99
2023-03-02T19:55:24.386Z,1.05
2023-03-02T19:57:56.952Z,1.10
2023-03-02T20:00:24.065Z,1.03
2023-03-02T20:02:50.681Z,0.96
2023-03-02T20:05:17.658Z,0.98
2023-03-02T20:07:44.479Z,0.98
2023-03-02T20:10:17.447Z,1.06
2023-03-02T20:12:44.012Z,1.18
2023-03-02T20:15:10.944Z,1.05
2023-03-02T20:17:37.440Z,1.05
2023-03-02T20:20:05.551Z,0.98
2023-03-02T20:22:31.941Z,0.92
2023-03-02T20:24:59.443Z,0.97
2023-03-02T20:27:26.056Z,1.09
2023-03-02T20:29:52.508Z,1.06
2023-03-02T20:32:19.040Z,0.92
2023-03-02T20:34:45.496Z,0.87
2023-03-02T20:37:14.945Z,0.97
2023-03-02T20:39:45.208Z,0.96
2023-03-02T20:42:12.230Z,0.89
2023-03-02T20:44:39.519Z,0.80
2023-03-02T20:47:09.754Z,0.77
2023-03-02T20:49:37.496Z,0.78
2023-03-02T20:52:05.241Z,0.78
2023-03-02T20:54:36.768Z,0.76
2023-03-02T20:57:05.246Z,0.82
2023-03-02T20:59:32.786Z,0.77
2023-03-02T21:02:00.264Z,0.77
2023-03-02T21:04:28.656Z,0.75
2023-03-02T21:06:55.170Z,0.86
2023-03-02T21:09:21.671Z,0.82
2023-03-02T21:11:48.411Z,0.91
2023-03-02T21:14:15.195Z,0.82
2023-03-02T21:16:44.446Z,0.81
2023-03-02T21:19:15.239Z,0.85
2023-03-02T21:21:42.593Z,0.84
2023-03-02T21:24:16.894Z,0.73
2023-03-02T21:26:45.623Z,0.66
2023-03-02T21:29:13.625Z,0.63
2023-03-02T21:31:42.120Z,0.56
2023-03-02T21:34:08.721Z,0.57
2023-03-02T21:36:35.443Z,0.74
2023-03-02T21:39:04.264Z,0.63
2023-03-02T21:41:30.780Z,0.63
2023-03-02T21:43:57.777Z,0.63
2023-03-02T21:46:24.500Z,0.55
2023-03-02T21:48:51.469Z,0.42
2023-03-02T21:51:18.121Z,0.38
2023-03-02T21:53:45.022Z,0.47
2023-03-02T21:56:20.498Z,0.34
2023-03-02T21:58:55.714Z,0.31
2023-03-02T22:01:22.596Z,0.25
2023-03-02T22:03:49.934Z,0.20
2023-03-02T22:06:25.538Z,0.14
2023-03-02T22:08:52.194Z,0.18
2023-03-02T22:11:24.718Z,0.10
2023-03-02T22:13:53.870Z,0.20
2023-03-02T22:16:23.023Z,0.03
2023-03-02T22:18:54.201Z,0.09
2023-03-02T22:21:33.334Z,-0.06
2023-03-02T22:24:09.727Z,-0.04
2023-03-02T22:26:40.794Z,-0.12
2023-03-02T22:29:16.380Z,-0.05
2023-03-02T22:31:47.543Z,-0.02
2023-03-02T22:34:18.714Z,-0.06
2023-03-02T22:36:46.766Z,-0.14
2023-03-02T22:39:29.941Z,-0.17
2023-03-02T22:42:06.212Z,-0.11
2023-03-02T22:44:33.413Z,-0.14
2023-03-02T22:47:00.358Z,-0.07
2023-03-02T22:49:29.479Z,-0.16
2023-03-02T22:52:01.003Z,-0.18
2023-03-02T22:54:36.368Z,-0.19
2023-03-02T22:57:03.969Z,-0.27
2023-03-02T22:59:37.379Z,-0.31
2023-03-02T23:02:14.755Z,-0.25
2023-03-02T23:04:41.785Z,-0.40
2023-03-02T23:07:26.790Z,-0.42
2023-03-02T23:09:53.242Z,-0.38
2023-03-02T23:12:27.563Z,-0.29
2023-03-02T23:14:56.249Z,-0.29
2023-03-02T23:17:35.980Z,-0.28
2023-03-02T23:20:09.122Z,-0.27
2023-03-02T23:22:36.087Z,-0.27
2023-03-02T23:25:03.499Z,-0.14
2023-03-02T23:27:30.044Z,-0.28
2023-03-02T23:29:56.501Z,-0.41
2023-03-02T23:32:23.012Z,-0.38
2023-03-02T23:34:50.120Z,-0.39
2023-03-02T23:37:17.374Z,-0.50
2023-03-02T23:39:46.012Z,-0.46
2023-03-02T23:42:12.658Z,-0.47
2023-03-02T23:44:39.108Z,-0.53
2023-03-02T23:47:05.537Z,-0.69
2023-03-02T23:49:32.214Z,-0.59
2023-03-02T23:51:58.695Z,-0.63
2023-03-02T23:54:25.156Z,-0.66
2023-03-02T23:56:51.573Z,-0.57
2023-03-02T23:59:17.997Z,-0.63
